Terminal Aerodrome Forecast
Issued by NWS Wichita, KS

Home | Current Version | Previous Version | Graphics & Text | Print | Product List | Glossary On
Versions: 1 2 3 4 5 6 7 8 9 10 11 12 13 14 15 16 17
000
FTUS43 KICT 261139
TAFICT
TAF
KICT 261139Z 2612/2712 32011KT P6SM SCT030 BKN080
     FM261500 02015KT P6SM SCT015 BKN025
     FM270100 33012KT P6SM VCSH BKN018 OVC040
     FM270700 32015G20KT P6SM SCT020 BKN035=

USA.gov is the U.S. government's official web portal to all federal, state and local government web resources and services.